Time;durP1;ratioP1;P1;durP2;ratioP2;P2;SDS_P1;SDS_P2;PMS_P1;PMS_P2;Temp;Humidity;BMP_temperature;BMP_pressure;BME280_temperature;BME280_humidity;BME280_pressure;Samples;Min_cycle;Max_cycle;Signal;HPM_P1;HPM_P2
2023/10/30 00:01:45;;;;;;;8.50;1.30;;;;;;;11.90;100.00;99562.78;4977126;28;20496;-85
2023/10/30 00:04:36;;;;;;;16.08;1.38;;;;;;;11.87;100.00;99574.06;4988519;28;20039;-85
2023/10/30 00:07:02;;;;;;;15.50;2.05;;;;;;;11.85;100.00;99570.59;4989316;28;20472;-84
2023/10/30 00:09:28;;;;;;;14.43;1.65;;;;;;;11.85;100.00;99570.59;4960894;28;21250;-85
2023/10/30 00:11:56;;;;;;;12.57;1.42;;;;;;;11.85;100.00;99576.09;4976545;28;20044;-85
2023/10/30 00:14:22;;;;;;;16.15;1.15;;;;;;;11.81;100.00;99571.97;4992992;28;20027;-85
2023/10/30 00:16:48;;;;;;;13.90;1.23;;;;;;;11.86;100.00;99572.31;4966211;28;20045;-85
2023/10/30 00:22:36;;;;;;;15.85;1.55;;;;;;;11.83;100.00;99583.63;4986034;28;20101;-85
2023/10/30 00:25:02;;;;;;;13.63;1.40;;;;;;;11.84;100.00;99585.34;4992699;28;20031;-85
2023/10/30 00:27:28;;;;;;;9.30;1.48;;;;;;;11.83;100.00;99591.84;4976723;28;20413;-85
2023/10/30 00:29:53;;;;;;;13.23;2.03;;;;;;;11.82;100.00;99598.34;4959146;28;20030;-84
2023/10/30 00:32:19;;;;;;;14.75;1.40;;;;;;;11.87;100.00;99606.97;4977392;28;20056;-85
2023/10/30 00:34:45;;;;;;;12.55;1.55;;;;;;;11.87;100.00;99604.22;4992488;28;20031;-85
2023/10/30 00:37:12;;;;;;;13.57;1.40;;;;;;;11.90;100.00;99612.13;4971007;28;20034;-85
2023/10/30 00:39:38;;;;;;;10.50;1.35;;;;;;;11.93;100.00;99610.97;4959386;28;20377;-85
2023/10/30 00:42:04;;;;;;;16.08;2.10;;;;;;;11.92;100.00;99618.34;4974727;28;20057;-85
2023/10/30 00:44:29;;;;;;;19.60;2.15;;;;;;;11.87;100.00;99619.81;4965915;28;20073;-84
2023/10/30 00:46:55;;;;;;;15.43;1.60;;;;;;;11.87;100.00;99622.53;4976352;28;20554;-85
2023/10/30 00:49:20;;;;;;;15.68;1.42;;;;;;;11.90;100.00;99631.34;4976666;28;20053;-85
2023/10/30 00:51:46;;;;;;;9.90;1.40;;;;;;;11.84;100.00;99631.09;4992066;28;20045;-85
2023/10/30 00:54:11;;;;;;;18.33;1.95;;;;;;;11.79;100.00;99642.56;4976883;28;20022;-85
2023/10/30 00:56:37;;;;;;;10.55;1.27;;;;;;;11.78;100.00;99646.31;4992472;28;20420;-85
2023/10/30 00:59:02;;;;;;;16.58;1.98;;;;;;;11.81;100.00;99646.00;4976875;28;20532;-89
2023/10/30 01:01:28;;;;;;;12.63;1.75;;;;;;;11.76;100.00;99646.47;4978451;28;20057;-88
2023/10/30 01:03:55;;;;;;;12.43;1.52;;;;;;;11.69;100.00;99652.75;4978985;28;20034;-89
2023/10/30 01:06:20;;;;;;;12.55;1.23;;;;;;;11.65;100.00;99656.84;4984855;28;20034;-89
2023/10/30 01:09:23;;;;;;;13.23;2.35;;;;;;;11.65;100.00;99657.69;4997143;28;20095;-90
2023/10/30 01:11:49;;;;;;;14.38;1.23;;;;;;;11.57;100.00;99653.00;4983207;28;20091;-89
2023/10/30 01:14:16;;;;;;;10.82;1.67;;;;;;;11.56;100.00;99659.50;4962665;28;20214;-89
2023/10/30 01:16:41;;;;;;;13.50;1.23;;;;;;;11.56;100.00;99666.88;4994592;28;20034;-89
2023/10/30 01:19:08;;;;;;;18.02;2.05;;;;;;;11.53;100.00;99665.31;4997200;28;20407;-89
2023/10/30 01:21:33;;;;;;;20.63;3.13;;;;;;;11.55;100.00;99666.00;4991471;28;20124;-90
2023/10/30 01:23:59;;;;;;;11.93;1.27;;;;;;;11.54;100.00;99666.16;4989236;28;20041;-88
2023/10/30 01:26:24;;;;;;;10.75;1.40;;;;;;;11.56;100.00;99665.00;4970498;28;20026;-89
2023/10/30 01:28:51;;;;;;;18.77;2.00;;;;;;;11.55;100.00;99665.16;5002382;28;20038;-88
2023/10/30 01:31:17;;;;;;;12.95;1.60;;;;;;;11.50;100.00;99662.88;4962498;28;20034;-89
2023/10/30 01:33:42;;;;;;;15.52;1.75;;;;;;;11.52;100.00;99655.34;4960035;28;20629;-89
2023/10/30 01:36:08;;;;;;;10.25;1.70;;;;;;;11.52;100.00;99660.81;4977745;28;20038;-89
2023/10/30 01:38:33;;;;;;;11.23;1.90;;;;;;;11.52;100.00;99660.81;4975284;28;20125;-89
2023/10/30 01:40:59;;;;;;;12.70;1.65;;;;;;;11.47;100.00;99654.97;4972359;28;20064;-89
2023/10/30 01:43:31;;;;;;;13.35;1.58;;;;;;;11.50;100.00;99662.03;4977593;28;20026;-89
2023/10/30 01:45:57;;;;;;;16.35;2.00;;;;;;;11.45;100.00;99661.63;4978180;28;20038;-89
2023/10/30 01:48:24;;;;;;;11.90;1.65;;;;;;;11.43;100.00;99664.53;4976730;28;20050;-89
2023/10/30 01:50:50;;;;;;;19.23;1.85;;;;;;;11.37;100.00;99671.47;4959321;28;20050;-88
2023/10/30 01:53:20;;;;;;;18.25;1.85;;;;;;;11.45;100.00;99667.97;4974864;28;20109;-90
2023/10/30 01:55:48;;;;;;;13.02;1.30;;;;;;;11.49;100.00;99663.88;4994587;28;20034;-89
2023/10/30 01:58:14;;;;;;;11.27;1.40;;;;;;;11.57;100.00;99665.84;4980199;28;20026;-89
2023/10/30 02:00:40;;;;;;;8.95;1.50;;;;;;;11.61;100.00;99666.38;4995831;28;20042;-90
2023/10/30 02:03:06;;;;;;;15.68;1.63;;;;;;;11.62;100.00;99673.59;4979188;28;20129;-89
2023/10/30 02:05:31;;;;;;;8.82;1.15;;;;;;;11.60;100.00;99665.53;4978177;28;20034;-88
2023/10/30 02:07:56;;;;;;;13.70;1.73;;;;;;;11.61;100.00;99670.00;4994377;28;20026;-89
2023/10/30 02:10:22;;;;;;;10.18;1.20;;;;;;;11.63;100.00;99672.59;4967304;28;20050;-84
2023/10/30 02:12:49;;;;;;;14.63;1.67;;;;;;;11.61;100.00;99661.78;4975060;28;20030;-85
2023/10/30 02:15:15;;;;;;;12.23;1.52;;;;;;;11.62;100.00;99666.22;4971946;28;20456;-85
2023/10/30 02:17:40;;;;;;;17.17;1.92;;;;;;;11.59;100.00;99672.03;4991854;28;20030;-85
2023/10/30 02:20:06;;;;;;;13.57;1.85;;;;;;;11.60;100.00;99665.53;4963347;28;20126;-85
2023/10/30 02:22:32;;;;;;;8.63;1.20;;;;;;;11.65;100.00;99670.53;4989773;28;20101;-85
2023/10/30 02:24:58;;;;;;;14.98;1.30;;;;;;;11.65;100.00;99662.31;4957534;28;20453;-85
2023/10/30 02:27:24;;;;;;;18.15;2.60;;;;;;;11.64;100.00;99658.72;4974837;28;20548;-86
2023/10/30 02:29:49;;;;;;;8.02;1.30;;;;;;;11.71;100.00;99657.06;4957764;28;20113;-85
2023/10/30 02:32:15;;;;;;;12.25;1.50;;;;;;;11.67;100.00;99652.91;4962041;28;20456;-85
2023/10/30 02:34:41;;;;;;;11.43;1.65;;;;;;;11.65;100.00;99660.44;4987912;28;20050;-85
2023/10/30 02:37:06;;;;;;;10.00;1.65;;;;;;;11.69;100.00;99664.59;4972397;28;20492;-85
2023/10/30 02:39:34;;;;;;;18.48;2.55;;;;;;;11.67;100.00;99663.88;4960403;28;20127;-85
2023/10/30 02:42:01;;;;;;;16.45;1.80;;;;;;;11.73;100.00;99649.53;4957017;28;20030;-85
2023/10/30 02:44:28;;;;;;;8.70;1.08;;;;;;;11.66;100.00;99655.81;4956823;28;20038;-85
2023/10/30 02:46:54;;;;;;;13.45;1.30;;;;;;;11.65;100.00;99646.72;4973986;28;20049;-85
2023/10/30 02:49:19;;;;;;;14.40;1.52;;;;;;;11.71;100.00;99646.09;4990871;28;20039;-85
2023/10/30 02:51:45;;;;;;;15.38;1.63;;;;;;;11.74;100.00;99651.25;4972311;28;20039;-85
2023/10/30 02:54:10;;;;;;;11.18;1.30;;;;;;;11.67;100.00;99638.34;4990453;28;20100;-85
2023/10/30 02:56:37;;;;;;;13.30;1.73;;;;;;;11.67;100.00;99636.44;4957192;28;20035;-84
2023/10/30 02:59:02;;;;;;;14.98;1.63;;;;;;;11.73;100.00;99640.47;4959008;28;20053;-85
2023/10/30 03:01:28;;;;;;;11.60;1.15;;;;;;;11.69;100.00;99644.53;4952857;28;20408;-85
2023/10/30 03:03:54;;;;;;;9.35;1.63;;;;;;;11.72;100.00;99652.44;4990354;28;20137;-84
2023/10/30 03:06:20;;;;;;;13.77;1.17;;;;;;;11.72;100.00;99647.84;4988692;28;20041;-84
2023/10/30 03:08:45;;;;;;;12.73;1.42;;;;;;;11.71;100.00;99646.09;4974989;28;20429;-85
2023/10/30 03:11:12;;;;;;;15.10;1.23;;;;;;;11.70;100.00;99641.63;4957719;28;20612;-85
2023/10/30 03:13:38;;;;;;;17.38;1.88;;;;;;;11.59;100.00;99631.78;4967975;28;20035;-85
2023/10/30 03:16:03;;;;;;;10.63;1.48;;;;;;;11.65;100.00;99640.38;4954061;28;20019;-84
2023/10/30 03:18:29;;;;;;;10.40;1.45;;;;;;;11.63;100.00;99653.41;4989804;28;20122;-84
2023/10/30 03:20:54;;;;;;;13.63;1.55;;;;;;;11.64;100.00;99655.09;4987689;28;20034;-84
2023/10/30 03:23:20;;;;;;;12.95;2.05;;;;;;;11.57;100.00;99650.25;4956046;28;20144;-84
2023/10/30 03:25:46;;;;;;;10.98;1.10;;;;;;;11.62;100.00;99652.53;4990264;28;20595;-84
2023/10/30 03:28:12;;;;;;;13.02;1.45;;;;;;;11.62;100.00;99657.16;4974641;28;20053;-83
2023/10/30 03:30:38;;;;;;;9.40;1.17;;;;;;;11.62;100.00;99657.16;4990394;28;20034;-84
2023/10/30 03:33:04;;;;;;;18.30;1.30;;;;;;;11.64;100.00;99664.22;4975129;28;20112;-84
2023/10/30 03:35:30;;;;;;;8.60;1.23;;;;;;;11.67;100.00;99658.38;4936729;28;20038;-85
2023/10/30 03:37:56;;;;;;;11.52;1.30;;;;;;;11.62;100.00;99660.75;4977617;28;20129;-85
2023/10/30 03:40:21;;;;;;;10.35;1.05;;;;;;;11.69;100.00;99663.72;4968761;28;20046;-85
2023/10/30 03:42:47;;;;;;;15.02;1.15;;;;;;;11.67;100.00;99671.25;4954254;28;20047;-85
2023/10/30 03:45:13;;;;;;;16.63;1.33;;;;;;;11.70;100.00;99673.66;4968796;28;20030;-84
2023/10/30 03:47:40;;;;;;;11.95;0.93;;;;;;;11.65;100.00;99665.91;4953668;28;20050;-84
2023/10/30 03:50:06;;;;;;;11.00;1.30;;;;;;;11.67;100.00;99676.72;4954678;28;20026;-84
2023/10/30 03:52:31;;;;;;;22.25;2.05;;;;;;;11.64;100.00;99677.91;4963423;28;20555;-85
2023/10/30 03:55:03;;;;;;;6.00;1.00;;;;;;;11.62;100.00;99674.44;4939358;28;20135;-85
2023/10/30 03:57:31;;;;;;;14.18;1.30;;;;;;;11.70;100.00;99671.78;4973661;28;20027;-85
2023/10/30 03:59:57;;;;;;;12.07;1.63;;;;;;;11.64;100.00;99674.28;4942266;28;20115;-85
2023/10/30 04:02:22;;;;;;;13.95;1.38;;;;;;;11.63;100.00;99672.59;4973227;28;20125;-85
2023/10/30 04:04:48;;;;;;;8.15;1.50;;;;;;;11.68;100.00;99682.06;4974286;28;20052;-84
2023/10/30 04:07:13;;;;;;;12.65;1.90;;;;;;;11.66;100.00;99686.84;4958017;28;20042;-86
2023/10/30 04:09:38;;;;;;;15.18;1.40;;;;;;;11.61;100.00;99689.19;4973264;28;20485;-84
2023/10/30 04:12:04;;;;;;;17.25;1.70;;;;;;;11.56;100.00;99686.94;4961525;28;20026;-84
2023/10/30 04:14:31;;;;;;;18.02;1.23;;;;;;;11.54;100.00;99682.59;4957996;28;20062;-85
2023/10/30 04:16:58;;;;;;;13.82;1.20;;;;;;;11.49;100.00;99674.00;4956949;28;20034;-84
2023/10/30 04:19:23;;;;;;;20.40;1.80;;;;;;;11.48;100.00;99672.25;4938829;28;20059;-84
2023/10/30 04:21:49;;;;;;;12.95;2.60;;;;;;;11.42;100.00;99678.38;4957314;28;20054;-84
2023/10/30 04:24:15;;;;;;;14.23;1.90;;;;;;;11.44;100.00;99673.59;4963823;28;20150;-85
2023/10/30 04:26:41;;;;;;;25.38;2.28;;;;;;;11.40;100.00;99668.44;4971943;28;20471;-85
2023/10/30 04:29:06;;;;;;;15.75;1.40;;;;;;;11.40;100.00;99667.59;4951275;28;20121;-84
2023/10/30 04:31:32;;;;;;;12.38;1.50;;;;;;;11.35;100.00;99661.72;4971890;28;20199;-85
2023/10/30 04:33:57;;;;;;;14.45;1.85;;;;;;;11.30;100.00;99669.53;4961914;28;20576;-85
2023/10/30 04:36:23;;;;;;;18.80;1.85;;;;;;;11.25;100.00;99666.38;4944590;28;20039;-85
2023/10/30 04:38:50;;;;;;;12.50;1.80;;;;;;;11.24;100.00;99670.16;4984466;28;20027;-84
2023/10/30 04:41:15;;;;;;;11.77;1.40;;;;;;;11.19;100.00;99678.84;4966934;28;20024;-85
2023/10/30 04:43:41;;;;;;;13.30;1.73;;;;;;;11.18;100.00;99677.97;4982559;28;20043;-84
2023/10/30 04:46:07;;;;;;;10.95;1.67;;;;;;;11.14;100.00;99679.28;4978429;28;20038;-85
2023/10/30 04:48:33;;;;;;;19.90;1.30;;;;;;;11.09;100.00;99680.78;4980943;28;20114;-84
2023/10/30 04:50:59;;;;;;;10.57;1.48;;;;;;;11.12;100.00;99673.13;4969461;28;20019;-85
2023/10/30 04:53:24;;;;;;;11.65;2.55;;;;;;;11.08;100.00;99679.91;4958956;28;20039;-84
2023/10/30 04:55:50;;;;;;;10.32;1.60;;;;;;;11.03;100.00;99680.38;4967063;28;20135;-85
2023/10/30 04:58:16;;;;;;;15.20;2.33;;;;;;;11.08;100.00;99681.78;4976136;28;20034;-84
2023/10/30 05:00:43;;;;;;;18.08;1.23;;;;;;;10.96;100.00;99675.66;4967977;28;20145;-85
2023/10/30 05:03:11;;;;;;;16.92;1.38;;;;;;;10.96;100.00;99673.78;4976238;28;20125;-85
2023/10/30 05:05:37;;;;;;;20.33;2.75;;;;;;;10.96;100.00;99675.66;4975100;28;20047;-84
2023/10/30 05:08:04;;;;;;;18.58;1.85;;;;;;;10.93;100.00;99679.56;4973254;28;20171;-85
2023/10/30 05:10:29;;;;;;;15.63;1.60;;;;;;;10.93;100.00;99673.22;4964227;28;20039;-85
2023/10/30 05:12:55;;;;;;;9.65;1.55;;;;;;;10.84;100.00;99670.41;4975929;28;20405;-84
2023/10/30 05:15:23;;;;;;;20.17;2.20;;;;;;;10.80;100.00;99674.44;4979704;28;20038;-86
2023/10/30 05:17:51;;;;;;;16.17;2.05;;;;;;;10.78;100.00;99673.75;4950245;29;20445;-86
2023/10/30 05:20:16;;;;;;;9.38;1.63;;;;;;;10.80;100.00;99665.38;4963718;28;20038;-89
2023/10/30 05:22:45;;;;;;;11.88;1.58;;;;;;;10.72;100.00;99662.53;4952032;28;20030;-88
2023/10/30 05:25:10;;;;;;;17.95;3.20;;;;;;;10.70;100.00;99667.31;4969140;28;20034;-89
2023/10/30 05:27:38;;;;;;;10.60;1.63;;;;;;;10.67;100.00;99668.47;4977112;28;20112;-90
2023/10/30 05:30:04;;;;;;;9.52;1.42;;;;;;;10.67;100.00;99679.41;4975675;28;20034;-88
2023/10/30 05:32:29;;;;;;;12.40;1.88;;;;;;;10.61;100.00;99672.69;4972579;28;20065;-88
2023/10/30 05:34:56;;;;;;;16.58;2.35;;;;;;;10.62;100.00;99673.53;4976635;28;20488;-88
2023/10/30 05:37:23;;;;;;;8.10;1.48;;;;;;;10.54;100.00;99671.53;4985325;28;20705;-87
2023/10/30 05:39:49;;;;;;;11.98;2.15;;;;;;;10.52;100.00;99673.56;4997112;28;20060;-86
2023/10/30 05:42:15;;;;;;;21.48;1.85;;;;;;;10.44;100.00;99668.84;5014414;28;20468;-88
2023/10/30 05:44:42;;;;;;;11.57;2.13;;;;;;;10.44;100.00;99671.59;4981436;28;20033;-87
2023/10/30 05:47:07;;;;;;;14.85;1.80;;;;;;;10.38;100.00;99658.53;4993065;28;20896;-88
2023/10/30 05:49:33;;;;;;;11.68;2.20;;;;;;;10.35;100.00;99657.97;4962621;28;20125;-88
2023/10/30 05:51:58;;;;;;;12.60;1.65;;;;;;;10.34;100.00;99662.56;4980432;28;20124;-88
2023/10/30 05:54:24;;;;;;;18.13;1.55;;;;;;;10.33;100.00;99662.69;4996831;28;20032;-88
2023/10/30 05:56:50;;;;;;;24.83;1.70;;;;;;;10.37;100.00;99658.66;4980945;28;20487;-88
2023/10/30 05:59:16;;;;;;;17.02;2.00;;;;;;;10.29;100.00;99662.13;4995527;28;20048;-88
2023/10/30 06:01:42;;;;;;;17.33;3.03;;;;;;;10.26;100.00;99665.16;4967221;28;20404;-88
2023/10/30 06:04:08;;;;;;;17.75;2.35;;;;;;;10.21;100.00;99653.78;4962265;28;20129;-88
2023/10/30 06:06:33;;;;;;;20.38;2.55;;;;;;;10.22;100.00;99656.38;4995194;28;20026;-88
2023/10/30 06:08:58;;;;;;;18.70;2.13;;;;;;;10.20;100.00;99663.00;4965332;28;20044;-88
2023/10/30 06:11:24;;;;;;;18.48;1.60;;;;;;;10.24;100.00;99676.22;4998952;28;20109;-87
2023/10/30 06:13:50;;;;;;;11.52;1.50;;;;;;;10.21;100.00;99673.78;4962220;28;20108;-88
2023/10/30 06:16:18;;;;;;;14.23;1.98;;;;;;;10.24;100.00;99675.38;4964539;28;20038;-86
2023/10/30 06:18:44;;;;;;;19.20;1.98;;;;;;;10.19;100.00;99670.34;4995789;28;20042;-88
2023/10/30 06:21:17;;;;;;;12.38;1.55;;;;;;;10.25;100.00;99682.59;4980344;28;20026;-89
2023/10/30 06:23:42;;;;;;;;;;;;;;;10.23;100.00;99682.72;4997730;28;20460;-88
2023/10/30 06:26:12;;;;;;;18.02;2.17;;;;;;;10.18;100.00;99684.19;4978352;28;19914;-88
2023/10/30 06:28:41;;;;;;;17.85;1.92;;;;;;;10.18;100.00;99684.19;4998061;28;20037;-88
2023/10/30 06:31:14;;;;;;;15.35;1.60;;;;;;;10.12;100.00;99686.50;4998735;28;20053;-88
2023/10/30 06:33:39;;;;;;;19.65;2.42;;;;;;;10.10;100.00;99687.63;5001327;28;20060;-88
2023/10/30 06:36:05;;;;;;;21.05;2.10;;;;;;;10.10;100.00;99690.38;5004461;28;20104;-89
2023/10/30 06:38:31;;;;;;;17.08;2.17;;;;;;;10.11;100.00;99692.97;4969414;28;20128;-88
2023/10/30 06:40:58;;;;;;;13.57;1.58;;;;;;;10.20;100.00;99688.50;4997247;28;20558;-89
2023/10/30 06:43:24;;;;;;;28.50;3.45;;;;;;;10.15;100.00;99695.41;4980082;28;20030;-88
2023/10/30 06:45:49;;;;;;;11.52;1.88;;;;;;;10.18;100.00;99698.69;4979975;28;20038;-88
2023/10/30 06:48:16;;;;;;;20.23;1.98;;;;;;;10.19;100.00;99688.66;4976003;28;20485;-88
2023/10/30 06:50:41;;;;;;;12.18;1.60;;;;;;;10.17;100.00;99699.72;4979656;28;20034;-87
2023/10/30 06:53:07;;;;;;;22.60;2.33;;;;;;;10.25;100.00;99705.31;4993638;28;20041;-88
2023/10/30 06:55:35;;;;;;;8.80;1.60;;;;;;;10.26;100.00;99708.91;4996544;28;20033;-88
2023/10/30 06:58:00;;;;;;;13.40;1.67;;;;;;;10.27;100.00;99714.25;4996341;28;20042;-87
2023/10/30 07:00:26;;;;;;;19.08;2.17;;;;;;;10.29;100.00;99714.09;4995916;28;20033;-88
2023/10/30 07:02:52;;;;;;;11.00;1.92;;;;;;;10.36;100.00;99712.50;4980277;28;20029;-87
2023/10/30 07:05:19;;;;;;;18.95;1.90;;;;;;;10.37;100.00;99725.19;4979397;28;20483;-87
2023/10/30 07:07:45;;;;;;;17.38;1.50;;;;;;;10.34;100.00;99721.91;4994734;28;20030;-87
2023/10/30 07:10:10;;;;;;;16.80;1.75;;;;;;;10.29;100.00;99719.56;4995103;28;20032;-87
2023/10/30 07:12:36;;;;;;;10.38;1.90;;;;;;;10.31;100.00;99728.47;4979100;28;20088;-86
2023/10/30 07:15:01;;;;;;;12.35;1.70;;;;;;;10.35;100.00;99731.84;4978554;28;20041;-86
2023/10/30 07:17:27;;;;;;;18.55;1.85;;;;;;;10.36;100.00;99728.94;4978687;28;20041;-87
2023/10/30 07:19:52;;;;;;;16.60;1.90;;;;;;;10.41;100.00;99723.91;4954553;28;20097;-87
2023/10/30 07:22:19;;;;;;;18.00;2.28;;;;;;;10.48;100.00;99729.63;4973361;28;20034;-91
2023/10/30 07:24:44;;;;;;;17.13;2.38;;;;;;;10.52;100.00;99724.72;4960440;28;20117;-88
2023/10/30 07:27:10;;;;;;;20.60;1.90;;;;;;;10.59;100.00;99712.16;4983894;28;20026;-90
2023/10/30 07:29:35;;;;;;;17.08;1.60;;;;;;;10.70;100.00;99716.59;4965709;28;20089;-90
2023/10/30 07:32:01;;;;;;;17.65;1.77;;;;;;;10.62;100.00;99718.19;4967366;28;20085;-90
2023/10/30 07:34:26;;;;;;;18.23;2.20;;;;;;;10.69;100.00;99717.59;4980154;28;20576;-88
2023/10/30 07:36:53;;;;;;;20.15;1.85;;;;;;;11.00;100.00;99724.53;4977252;28;20041;-88
2023/10/30 07:39:18;;;;;;;12.73;2.45;;;;;;;11.22;100.00;99725.97;4983189;28;20041;-91
2023/10/30 07:41:44;;;;;;;14.85;2.13;;;;;;;11.16;100.00;99737.53;4967955;28;20042;-87
2023/10/30 07:44:10;;;;;;;13.63;2.60;;;;;;;11.38;100.00;99738.13;4983926;28;20065;-90
2023/10/30 07:46:35;;;;;;;16.75;2.50;;;;;;;11.48;100.00;99736.19;4973714;28;20058;-91
2023/10/30 07:49:04;;;;;;;14.13;1.95;;;;;;;11.48;100.00;99740.78;4999045;28;20034;-89
2023/10/30 07:51:30;;;;;;;7.82;1.38;;;;;;;11.51;100.00;99738.63;4977839;28;20042;-87
2023/10/30 07:53:56;;;;;;;12.77;2.22;;;;;;;11.56;100.00;99732.69;4967100;28;20451;-84
2023/10/30 07:56:22;;;;;;;14.77;2.03;;;;;;;11.49;100.00;99743.38;4982041;28;20038;-88
2023/10/30 07:58:47;;;;;;;13.63;1.85;;;;;;;11.56;100.00;99744.50;4981928;28;20122;-88
2023/10/30 08:01:12;;;;;;;12.90;2.10;;;;;;;11.59;100.00;99738.69;4965235;28;20026;-86
2023/10/30 08:03:38;;;;;;;18.85;2.78;;;;;;;11.67;100.00;99746.13;4980789;28;20040;-86
2023/10/30 08:06:04;;;;;;;18.58;2.50;;;;;;;11.60;100.00;99747.78;4982211;28;20476;-87
2023/10/30 08:08:29;;;;;;;18.63;2.72;;;;;;;11.65;100.00;99750.91;4964695;28;20122;-86
2023/10/30 08:10:55;;;;;;;17.20;1.60;;;;;;;11.70;100.00;99751.31;4981736;28;20042;-86
2023/10/30 08:13:20;;;;;;;14.93;1.98;;;;;;;11.75;100.00;99745.34;4998016;28;20025;-87
2023/10/30 08:15:46;;;;;;;18.27;1.92;;;;;;;11.75;100.00;99743.47;4965229;28;20558;-91
2023/10/30 08:18:12;;;;;;;20.52;3.35;;;;;;;11.85;100.00;99748.88;4981920;28;20040;-86
2023/10/30 08:20:37;;;;;;;12.75;1.95;;;;;;;11.90;100.00;99732.81;4997163;28;20503;-88
2023/10/30 08:23:03;;;;;;;11.65;1.77;;;;;;;11.91;100.00;99737.31;4964722;28;20036;-86
2023/10/30 08:25:28;;;;;;;13.02;2.15;;;;;;;11.76;100.00;99734.22;4996560;28;20038;-86
2023/10/30 08:27:56;;;;;;;16.20;2.30;;;;;;;11.76;100.00;99734.22;4995974;28;20030;-85
2023/10/30 08:30:22;;;;;;;13.32;1.75;;;;;;;11.97;100.00;99740.44;4997323;28;20030;-87
2023/10/30 08:32:48;;;;;;;12.98;1.55;;;;;;;12.01;100.00;99750.94;4980242;28;20130;-87
2023/10/30 08:35:13;;;;;;;20.88;2.05;;;;;;;12.08;100.00;99743.78;5007031;28;20053;-86
2023/10/30 08:37:38;;;;;;;22.77;2.60;;;;;;;11.97;100.00;99748.66;4995725;28;20173;-87
2023/10/30 08:40:06;;;;;;;11.90;1.63;;;;;;;11.98;100.00;99750.41;4980375;28;20022;-85
2023/10/30 08:42:32;;;;;;;14.60;1.67;;;;;;;12.01;100.00;99747.34;4994789;28;20535;-88
2023/10/30 08:44:57;;;;;;;14.15;1.65;;;;;;;12.06;100.00;99747.72;4981681;28;20076;-86
2023/10/30 08:47:23;;;;;;;18.52;2.25;;;;;;;12.19;100.00;99744.56;4996400;28;20036;-89
2023/10/30 08:49:49;;;;;;;9.60;1.98;;;;;;;12.23;100.00;99754.19;4964099;28;20049;-87
2023/10/30 08:52:16;;;;;;;17.88;2.72;;;;;;;12.26;100.00;99743.75;4989195;28;20119;-90
2023/10/30 08:54:42;;;;;;;11.52;1.63;;;;;;;12.27;100.00;99755.63;4966978;28;20068;-91
2023/10/30 08:57:08;;;;;;;9.70;1.63;;;;;;;12.30;100.00;99764.38;4998383;28;20022;-91
2023/10/30 08:59:38;;;;;;;10.88;2.10;;;;;;;12.30;100.00;99758.03;4977257;28;20021;-90
2023/10/30 09:02:05;;;;;;;12.02;2.47;;;;;;;12.32;100.00;99751.34;4998280;28;20064;-89
2023/10/30 09:04:31;;;;;;;15.40;2.17;;;;;;;12.36;100.00;99760.13;4981351;28;20562;-90
2023/10/30 09:06:56;;;;;;;12.10;1.65;;;;;;;12.34;100.00;99761.31;4994900;28;20026;-89
2023/10/30 09:09:22;;;;;;;10.98;1.75;;;;;;;12.35;100.00;99752.94;4964397;28;20124;-90
2023/10/30 09:11:47;;;;;;;8.70;1.85;;;;;;;12.36;100.00;99754.63;4962705;28;20034;-90
2023/10/30 09:14:13;;;;;;;13.80;1.77;;;;;;;12.44;100.00;99756.59;4980495;28;20030;-89
2023/10/30 09:16:40;;;;;;;18.08;1.90;;;;;;;12.50;100.00;99750.47;4976311;28;20155;-90
2023/10/30 09:19:05;;;;;;;22.25;1.63;;;;;;;12.48;100.00;99755.25;4982218;28;20522;-89
2023/10/30 09:21:30;;;;;;;22.35;2.05;;;;;;;12.56;100.00;99766.28;4976505;28;20038;-90
2023/10/30 09:23:56;;;;;;;15.75;1.88;;;;;;;12.54;100.00;99756.47;4979143;28;20061;-89
2023/10/30 09:26:23;;;;;;;15.10;2.00;;;;;;;12.52;100.00;99759.38;4998373;28;20033;-90
2023/10/30 09:28:49;;;;;;;10.57;1.73;;;;;;;12.58;100.00;99763.38;4982013;28;20033;-90
2023/10/30 09:31:15;;;;;;;18.35;1.98;;;;;;;12.55;100.00;99771.94;4978444;28;20038;-88
2023/10/30 09:33:40;;;;;;;12.50;2.05;;;;;;;12.57;100.00;99775.38;4965545;28;20072;-88
2023/10/30 09:36:07;;;;;;;13.05;1.90;;;;;;;12.57;100.00;99764.41;4997922;28;20538;-89
2023/10/30 09:38:32;;;;;;;15.60;1.55;;;;;;;12.66;100.00;99764.28;4975466;28;20463;-88
2023/10/30 09:41:05;;;;;;;10.75;2.40;;;;;;;12.75;100.00;99750.59;4997650;28;20030;-89
2023/10/30 09:43:33;;;;;;;12.77;1.50;;;;;;;12.82;100.00;99748.91;4967811;28;20140;-88
2023/10/30 09:46:00;;;;;;;17.55;1.65;;;;;;;12.78;100.00;99745.63;4973018;28;20508;-87
2023/10/30 09:48:28;;;;;;;8.85;1.25;;;;;;;12.80;100.00;99745.47;4994415;28;20037;-85
2023/10/30 09:50:54;;;;;;;10.38;1.73;;;;;;;12.81;100.00;99753.56;4977195;28;20037;-86
2023/10/30 09:53:20;;;;;;;15.65;2.30;;;;;;;12.87;100.00;99752.03;4993761;28;20045;-87
2023/10/30 09:55:47;;;;;;;16.52;1.80;;;;;;;12.96;100.00;99755.69;5012597;28;20029;-87
2023/10/30 09:58:13;;;;;;;17.63;2.10;;;;;;;13.02;100.00;99755.06;4978922;28;20036;-85
2023/10/30 10:00:39;;;;;;;10.75;1.60;;;;;;;13.06;100.00;99745.44;4975008;28;20514;-86
2023/10/30 10:03:07;;;;;;;13.43;1.45;;;;;;;13.07;100.00;99747.16;4993213;28;20121;-87
2023/10/30 10:05:32;;;;;;;15.02;1.92;;;;;;;13.10;100.00;99743.22;4994674;28;20496;-86
2023/10/30 10:07:58;;;;;;;13.07;2.05;;;;;;;13.18;100.00;99741.38;4994457;28;20033;-85
2023/10/30 10:10:24;;;;;;;15.68;1.83;;;;;;;13.17;100.00;99741.53;4991546;28;20030;-85
2023/10/30 10:12:50;;;;;;;14.50;1.73;;;;;;;13.15;100.00;99736.22;5010542;28;20065;-84
2023/10/30 10:15:17;;;;;;;18.30;1.58;;;;;;;13.10;100.00;99726.72;4992874;28;20032;-86
2023/10/30 10:17:44;;;;;;;3.15;1.33;;;;;;;13.06;100.00;99723.44;5011391;28;20400;-85
2023/10/30 10:20:11;;;;;;;9.98;1.80;;;;;;;13.10;100.00;99721.22;4993135;28;20096;-83
2023/10/30 10:22:37;;;;;;;8.85;1.17;;;;;;;13.11;100.00;99728.44;4993118;28;20730;-83
2023/10/30 10:25:04;;;;;;;16.85;2.17;;;;;;;13.14;100.00;99720.72;4992923;28;20088;-83
2023/10/30 10:27:30;;;;;;;14.57;1.50;;;;;;;13.20;100.00;99730.22;5005417;28;20069;-84
2023/10/30 10:29:57;;;;;;;11.32;1.83;;;;;;;13.23;100.00;99729.84;5002550;28;20562;-83
2023/10/30 10:32:28;;;;;;;11.00;1.42;;;;;;;13.24;100.00;99732.44;4985981;28;20049;-84
2023/10/30 10:34:58;;;;;;;8.45;1.50;;;;;;;13.38;100.00;99730.97;4990931;28;20029;-84
2023/10/30 10:37:23;;;;;;;18.20;1.67;;;;;;;13.46;100.00;99727.38;4990218;28;20044;-84
2023/10/30 10:39:50;;;;;;;12.48;1.45;;;;;;;13.50;100.00;99723.28;4992813;28;20021;-82
2023/10/30 10:42:18;;;;;;;12.15;1.77;;;;;;;13.53;100.00;99719.34;5007114;28;20057;-82
2023/10/30 10:44:45;;;;;;;12.77;1.88;;;;;;;13.51;100.00;99711.25;5009292;28;20121;-86
2023/10/30 10:47:11;;;;;;;17.25;2.30;;;;;;;13.52;100.00;99710.22;4977757;28;20029;-83
2023/10/30 10:49:36;;;;;;;17.05;2.00;;;;;;;13.58;100.00;99705.94;5011225;28;20022;-83
2023/10/30 10:52:05;;;;;;;13.18;2.65;;;;;;;13.63;100.00;99703.53;4992894;28;20130;-82
2023/10/30 10:54:35;;;;;;;7.97;1.52;;;;;;;13.62;100.00;99704.56;4989411;28;20044;-83
2023/10/30 10:57:04;;;;;;;21.13;1.85;;;;;;;13.59;100.00;99700.28;5004023;28;20026;-83
2023/10/30 10:59:33;;;;;;;13.60;1.40;;;;;;;13.66;100.00;99708.69;4993394;28;20104;-84
2023/10/30 11:01:59;;;;;;;8.90;1.52;;;;;;;13.70;100.00;99703.72;4989286;28;20030;-84
2023/10/30 11:04:25;;;;;;;8.38;1.75;;;;;;;13.78;100.00;99701.81;5008777;28;20045;-84
2023/10/30 11:06:57;;;;;;;16.30;1.73;;;;;;;13.84;100.00;99700.28;4992746;28;20038;-84
2023/10/30 11:09:31;;;;;;;9.32;1.63;;;;;;;13.82;100.00;99701.47;4991512;28;20112;-84
2023/10/30 11:12:26;;;;;;;12.60;1.58;;;;;;;14.01;100.00;99692.88;4983723;28;20061;-83
2023/10/30 11:15:14;;;;;;;8.75;2.38;;;;;;;14.07;100.00;99689.44;4991740;28;20399;-83
2023/10/30 11:17:40;;;;;;;28.30;2.05;;;;;;;14.00;100.00;99684.78;4988809;28;20053;-84
2023/10/30 11:20:09;;;;;;;9.63;1.30;;;;;;;14.10;100.00;99674.47;5009834;28;20558;-83